sensor_id;sensor_type;location;lat;lon;timestamp;pressure;altitude;pressure_sealevel;temperature;humidity
20013;BME280;10167;42.852;23.042;2023-01-30T00:00:18;95175.47;;;-0.02;100.00
20013;BME280;10167;42.852;23.042;2023-01-30T00:02:47;95167.31;;;0.02;100.00
20013;BME280;10167;42.852;23.042;2023-01-30T00:05:16;95165.53;;;0.02;100.00
20013;BME280;10167;42.852;23.042;2023-01-30T00:07:47;95162.31;;;0.00;100.00
20013;BME280;10167;42.852;23.042;2023-01-30T00:10:17;95169.63;;;-0.04;100.00
20013;BME280;10167;42.852;23.042;2023-01-30T00:12:48;95182.31;;;-0.09;100.00
20013;BME280;10167;42.852;23.042;2023-01-30T00:15:17;95176.78;;;-0.14;100.00
20013;BME280;10167;42.852;23.042;2023-01-30T00:17:46;95177.78;;;-0.15;100.00
20013;BME280;10167;42.852;23.042;2023-01-30T00:20:16;95181.34;;;-0.32;100.00
20013;BME280;10167;42.852;23.042;2023-01-30T00:22:46;95174.84;;;-0.20;100.00
20013;BME280;10167;42.852;23.042;2023-01-30T00:25:27;95169.81;;;-0.13;100.00
20013;BME280;10167;42.852;23.042;2023-01-30T00:28:00;95165.88;;;-0.09;100.00
20013;BME280;10167;42.852;23.042;2023-01-30T00:30:30;95166.69;;;-0.17;100.00
20013;BME280;10167;42.852;23.042;2023-01-30T00:32:59;95162.81;;;-0.13;100.00
20013;BME280;10167;42.852;23.042;2023-01-30T00:35:29;95161.50;;;-0.25;100.00
20013;BME280;10167;42.852;23.042;2023-01-30T00:37:58;95157.94;;;-0.24;100.00
20013;BME280;10167;42.852;23.042;2023-01-30T00:40:29;95169.63;;;-0.28;100.00
20013;BME280;10167;42.852;23.042;2023-01-30T00:43:00;95167.19;;;-0.29;100.00
20013;BME280;10167;42.852;23.042;2023-01-30T00:45:47;95157.75;;;-0.30;100.00
20013;BME280;10167;42.852;23.042;2023-01-30T00:48:35;95164.91;;;-0.32;100.00
20013;BME280;10167;42.852;23.042;2023-01-30T00:51:04;95161.19;;;-0.38;100.00
20013;BME280;10167;42.852;23.042;2023-01-30T00:53:35;95162.31;;;-0.32;100.00
20013;BME280;10167;42.852;23.042;2023-01-30T00:56:05;95151.59;;;-0.38;100.00
20013;BME280;10167;42.852;23.042;2023-01-30T00:58:36;95157.75;;;-0.30;100.00
20013;BME280;10167;42.852;23.042;2023-01-30T01:01:05;95151.75;;;-0.23;100.00
20013;BME280;10167;42.852;23.042;2023-01-30T01:03:34;95150.28;;;-0.25;100.00
20013;BME280;10167;42.852;23.042;2023-01-30T01:06:03;95149.47;;;-0.26;100.00
20013;BME280;10167;42.852;23.042;2023-01-30T01:08:32;95140.38;;;-0.38;100.00
20013;BME280;10167;42.852;23.042;2023-01-30T01:11:01;95146.22;;;-0.28;100.00
20013;BME280;10167;42.852;23.042;2023-01-30T01:13:30;95146.38;;;-0.21;100.00
20013;BME280;10167;42.852;23.042;2023-01-30T01:16:01;95136.28;;;-0.16;100.00
20013;BME280;10167;42.852;23.042;2023-01-30T01:18:30;95136.94;;;-0.14;100.00
20013;BME280;10167;42.852;23.042;2023-01-30T01:21:00;95141.34;;;-0.23;100.00
20013;BME280;10167;42.852;23.042;2023-01-30T01:23:29;95131.75;;;-0.14;100.00
20013;BME280;10167;42.852;23.042;2023-01-30T01:26:00;95125.22;;;-0.18;100.00
20013;BME280;10167;42.852;23.042;2023-01-30T01:28:29;95120.66;;;-0.16;100.00
20013;BME280;10167;42.852;23.042;2023-01-30T01:31:02;95122.97;;;-0.29;100.00
20013;BME280;10167;42.852;23.042;2023-01-30T01:33:34;95130.94;;;-0.23;100.00
20013;BME280;10167;42.852;23.042;2023-01-30T01:36:04;95119.88;;;-0.25;100.00
20013;BME280;10167;42.852;23.042;2023-01-30T01:38:34;95128.16;;;-0.21;100.00
20013;BME280;10167;42.852;23.042;2023-01-30T01:41:04;95125.09;;;-0.25;100.00
20013;BME280;10167;42.852;23.042;2023-01-30T01:43:35;95118.41;;;-0.27;100.00
20013;BME280;10167;42.852;23.042;2023-01-30T01:46:13;95134.81;;;-0.19;100.00
20013;BME280;10167;42.852;23.042;2023-01-30T01:48:50;95122.00;;;-0.28;100.00
20013;BME280;10167;42.852;23.042;2023-01-30T01:51:27;95122.47;;;-0.17;100.00
20013;BME280;10167;42.852;23.042;2023-01-30T01:54:01;95124.91;;;-0.23;100.00
20013;BME280;10167;42.852;23.042;2023-01-30T01:56:33;95120.53;;;-0.23;100.00
20013;BME280;10167;42.852;23.042;2023-01-30T01:59:09;95123.91;;;-0.22;100.00
20013;BME280;10167;42.852;23.042;2023-01-30T02:01:42;95120.53;;;-0.23;100.00
20013;BME280;10167;42.852;23.042;2023-01-30T02:04:13;95124.91;;;-0.15;100.00
20013;BME280;10167;42.852;23.042;2023-01-30T02:07:03;95110.44;;;-0.18;100.00
20013;BME280;10167;42.852;23.042;2023-01-30T02:09:32;95124.22;;;-0.09;100.00
20013;BME280;10167;42.852;23.042;2023-01-30T02:12:03;95119.66;;;-0.07;100.00
20013;BME280;10167;42.852;23.042;2023-01-30T02:14:33;95122.44;;;-0.01;100.00
20013;BME280;10167;42.852;23.042;2023-01-30T02:17:25;95110.56;;;-0.11;100.00
20013;BME280;10167;42.852;23.042;2023-01-30T02:20:03;95110.75;;;-0.21;100.00
20013;BME280;10167;42.852;23.042;2023-01-30T02:22:49;95106.69;;;-0.15;100.00
20013;BME280;10167;42.852;23.042;2023-01-30T02:28:58;95107.81;;;-0.18;100.00
20013;BME280;10167;42.852;23.042;2023-01-30T02:31:39;95097.63;;;-0.35;100.00
20013;BME280;10167;42.852;23.042;2023-01-30T02:34:26;95106.72;;;-0.23;100.00
20013;BME280;10167;42.852;23.042;2023-01-30T02:37:07;95110.94;;;-0.30;100.00
20013;BME280;10167;42.852;23.042;2023-01-30T02:39:50;95110.91;;;-0.14;100.00
20013;BME280;10167;42.852;23.042;2023-01-30T02:42:31;95114.34;;;-0.14;100.00
20013;BME280;10167;42.852;23.042;2023-01-30T02:45:08;95111.56;;;-0.20;100.00
20013;BME280;10167;42.852;23.042;2023-01-30T02:47:46;95112.38;;;-0.20;100.00
20013;BME280;10167;42.852;23.042;2023-01-30T02:50:21;95108.63;;;-0.17;100.00
20013;BME280;10167;42.852;23.042;2023-01-30T02:52:53;95109.94;;;-0.21;100.00
20013;BME280;10167;42.852;23.042;2023-01-30T02:55:25;95103.75;;;-0.20;100.00
20013;BME280;10167;42.852;23.042;2023-01-30T02:57:56;95107.03;;;-0.26;100.00
20013;BME280;10167;42.852;23.042;2023-01-30T03:00:35;95108.03;;;-0.35;100.00
20013;BME280;10167;42.852;23.042;2023-01-30T03:03:35;95092.91;;;-0.40;100.00
20013;BME280;10167;42.852;23.042;2023-01-30T03:06:24;95097.25;;;-0.32;100.00
20013;BME280;10167;42.852;23.042;2023-01-30T03:09:06;95098.56;;;-0.28;100.00
20013;BME280;10167;42.852;23.042;2023-01-30T03:11:46;95090.41;;;-0.17;100.00
20013;BME280;10167;42.852;23.042;2023-01-30T03:14:21;95092.06;;;-0.24;100.00
20013;BME280;10167;42.852;23.042;2023-01-30T03:16:54;95085.41;;;-0.27;100.00
20013;BME280;10167;42.852;23.042;2023-01-30T03:19:27;95085.91;;;-0.23;100.00
20013;BME280;10167;42.852;23.042;2023-01-30T03:21:59;95087.38;;;-0.37;100.00
20013;BME280;10167;42.852;23.042;2023-01-30T03:24:29;95085.06;;;-0.24;100.00
20013;BME280;10167;42.852;23.042;2023-01-30T03:27:02;95081.31;;;-0.21;100.00
20013;BME280;10167;42.852;23.042;2023-01-30T03:29:35;95080.53;;;-0.30;100.00
20013;BME280;10167;42.852;23.042;2023-01-30T03:32:06;95077.63;;;-0.35;100.00
20013;BME280;10167;42.852;23.042;2023-01-30T03:34:37;95071.75;;;-0.29;100.00
20013;BME280;10167;42.852;23.042;2023-01-30T03:37:06;95069.16;;;-0.37;100.00
20013;BME280;10167;42.852;23.042;2023-01-30T03:39:36;95071.28;;;-0.41;100.00
20013;BME280;10167;42.852;23.042;2023-01-30T03:42:07;95067.88;;;-0.57;100.00
20013;BME280;10167;42.852;23.042;2023-01-30T03:44:36;95062.16;;;-0.45;100.00
20013;BME280;10167;42.852;23.042;2023-01-30T03:47:06;95068.00;;;-0.43;100.00
20013;BME280;10167;42.852;23.042;2023-01-30T03:49:37;95066.25;;;-0.50;100.00
20013;BME280;10167;42.852;23.042;2023-01-30T03:52:07;95061.53;;;-0.47;100.00
20013;BME280;10167;42.852;23.042;2023-01-30T03:54:36;95060.38;;;-0.36;100.00
20013;BME280;10167;42.852;23.042;2023-01-30T03:57:07;95061.97;;;-0.27;100.00
20013;BME280;10167;42.852;23.042;2023-01-30T03:59:37;95064.75;;;-0.28;100.00
20013;BME280;10167;42.852;23.042;2023-01-30T04:02:09;95062.16;;;-0.28;100.00
20013;BME280;10167;42.852;23.042;2023-01-30T04:04:40;95068.34;;;-0.38;100.00
20013;BME280;10167;42.852;23.042;2023-01-30T04:07:11;95063.47;;;-0.41;100.00
20013;BME280;10167;42.852;23.042;2023-01-30T04:09:42;95064.13;;;-0.55;100.00
20013;BME280;10167;42.852;23.042;2023-01-30T04:12:12;95052.78;;;-0.62;100.00
20013;BME280;10167;42.852;23.042;2023-01-30T04:14:53;95045.94;;;-0.47;100.00
20013;BME280;10167;42.852;23.042;2023-01-30T04:17:42;95042.00;;;-0.43;100.00
20013;BME280;10167;42.852;23.042;2023-01-30T04:20:43;95044.16;;;-0.46;100.00
20013;BME280;10167;42.852;23.042;2023-01-30T04:23:15;95042.34;;;-0.46;100.00
20013;BME280;10167;42.852;23.042;2023-01-30T04:25:45;95041.69;;;-0.48;100.00
20013;BME280;10167;42.852;23.042;2023-01-30T04:28:17;95035.53;;;-0.47;100.00
20013;BME280;10167;42.852;23.042;2023-01-30T04:30:47;95034.72;;;-0.47;100.00
20013;BME280;10167;42.852;23.042;2023-01-30T04:33:35;95036.84;;;-0.59;100.00
20013;BME280;10167;42.852;23.042;2023-01-30T04:36:09;95034.25;;;-0.59;100.00
20013;BME280;10167;42.852;23.042;2023-01-30T04:38:40;95029.03;;;-0.51;100.00
20013;BME280;10167;42.852;23.042;2023-01-30T04:41:09;95029.03;;;-0.67;100.00
20013;BME280;10167;42.852;23.042;2023-01-30T04:43:41;95025.28;;;-0.56;100.00
20013;BME280;10167;42.852;23.042;2023-01-30T04:46:14;95029.50;;;-0.55;100.00
20013;BME280;10167;42.852;23.042;2023-01-30T04:48:43;95022.69;;;-0.56;100.00
20013;BME280;10167;42.852;23.042;2023-01-30T04:51:13;95027.41;;;-0.52;100.00
20013;BME280;10167;42.852;23.042;2023-01-30T04:53:42;95017.31;;;-0.47;100.00
20013;BME280;10167;42.852;23.042;2023-01-30T04:56:13;95023.66;;;-0.49;100.00
20013;BME280;10167;42.852;23.042;2023-01-30T04:58:43;95013.91;;;-0.55;100.00
20013;BME280;10167;42.852;23.042;2023-01-30T05:01:14;95018.28;;;-0.56;100.00
20013;BME280;10167;42.852;23.042;2023-01-30T05:03:44;95010.84;;;-0.59;100.00
20013;BME280;10167;42.852;23.042;2023-01-30T05:06:14;95023.97;;;-0.52;100.00
20013;BME280;10167;42.852;23.042;2023-01-30T05:08:43;95014.72;;;-0.55;100.00
20013;BME280;10167;42.852;23.042;2023-01-30T05:11:15;95021.25;;;-0.59;100.00
20013;BME280;10167;42.852;23.042;2023-01-30T05:13:44;95018.28;;;-0.56;100.00
20013;BME280;10167;42.852;23.042;2023-01-30T05:16:14;95015.03;;;-0.50;100.00
20013;BME280;10167;42.852;23.042;2023-01-30T05:18:44;95016.97;;;-0.44;100.00
20013;BME280;10167;42.852;23.042;2023-01-30T05:21:16;95025.78;;;-0.53;100.00
20013;BME280;10167;42.852;23.042;2023-01-30T05:23:45;95028.38;;;-0.61;100.00
20013;BME280;10167;42.852;23.042;2023-01-30T05:26:15;95025.47;;;-0.58;100.00
20013;BME280;10167;42.852;23.042;2023-01-30T05:28:50;95026.44;;;-0.67;100.00
20013;BME280;10167;42.852;23.042;2023-01-30T05:31:19;95031.31;;;-0.72;100.00
20013;BME280;10167;42.852;23.042;2023-01-30T05:33:50;95028.88;;;-0.65;100.00
20013;BME280;10167;42.852;23.042;2023-01-30T05:36:22;95025.28;;;-0.64;100.00
20013;BME280;10167;42.852;23.042;2023-01-30T05:38:51;95036.38;;;-0.70;100.00
20013;BME280;10167;42.852;23.042;2023-01-30T05:41:20;95031.31;;;-0.64;100.00
20013;BME280;10167;42.852;23.042;2023-01-30T05:43:50;95028.41;;;-0.69;100.00
20013;BME280;10167;42.852;23.042;2023-01-30T05:46:19;95031.16;;;-0.70;100.00
20013;BME280;10167;42.852;23.042;2023-01-30T05:48:50;95039.94;;;-0.71;100.00
20013;BME280;10167;42.852;23.042;2023-01-30T05:51:22;95038.16;;;-0.71;100.00
20013;BME280;10167;42.852;23.042;2023-01-30T05:53:52;95034.56;;;-0.62;100.00
20013;BME280;10167;42.852;23.042;2023-01-30T05:56:22;95040.56;;;-0.53;100.00
20013;BME280;10167;42.852;23.042;2023-01-30T05:58:53;95031.31;;;-0.48;100.00
20013;BME280;10167;42.852;23.042;2023-01-30T06:01:23;95034.53;;;-0.54;100.00
20013;BME280;10167;42.852;23.042;2023-01-30T06:03:53;95023.81;;;-0.51;100.00
20013;BME280;10167;42.852;23.042;2023-01-30T06:06:24;95034.53;;;-0.54;100.00
20013;BME280;10167;42.852;23.042;2023-01-30T06:08:54;95030.81;;;-0.51;100.00
20013;BME280;10167;42.852;23.042;2023-01-30T06:11:23;95025.13;;;-0.47;100.00
20013;BME280;10167;42.852;23.042;2023-01-30T06:13:52;95024.47;;;-0.49;100.00
20013;BME280;10167;42.852;23.042;2023-01-30T06:16:21;95025.28;;;-0.48;100.00
20013;BME280;10167;42.852;23.042;2023-01-30T06:18:50;95034.69;;;-0.39;100.00
20013;BME280;10167;42.852;23.042;2023-01-30T06:21:20;95030.97;;;-0.53;100.00
20013;BME280;10167;42.852;23.042;2023-01-30T06:23:51;95032.25;;;-0.41;100.00
20013;BME280;10167;42.852;23.042;2023-01-30T06:26:20;95035.81;;;-0.42;100.00
20013;BME280;10167;42.852;23.042;2023-01-30T06:28:50;95033.88;;;-0.40;100.00
20013;BME280;10167;42.852;23.042;2023-01-30T06:31:19;95033.22;;;-0.42;100.00
20013;BME280;10167;42.852;23.042;2023-01-30T06:33:48;95033.56;;;-0.37;100.00
20013;BME280;10167;42.852;23.042;2023-01-30T06:36:17;95036.81;;;-0.34;100.00
20013;BME280;10167;42.852;23.042;2023-01-30T06:38:46;95035.81;;;-0.33;100.00
20013;BME280;10167;42.852;23.042;2023-01-30T06:41:17;95032.91;;;-0.39;100.00
20013;BME280;10167;42.852;23.042;2023-01-30T06:43:46;95038.88;;;-0.30;100.00
20013;BME280;10167;42.852;23.042;2023-01-30T06:46:16;95038.41;;;-0.25;100.00
20013;BME280;10167;42.852;23.042;2023-01-30T06:48:45;95038.88;;;-0.30;100.00
20013;BME280;10167;42.852;23.042;2023-01-30T06:51:15;95043.97;;;-0.37;100.00
20013;BME280;10167;42.852;23.042;2023-01-30T06:53:45;95041.00;;;-0.25;100.00
20013;BME280;10167;42.852;23.042;2023-01-30T06:56:14;95040.03;;;-0.24;100.00
20013;BME280;10167;42.852;23.042;2023-01-30T06:58:45;95037.44;;;-0.24;100.00
20013;BME280;10167;42.852;23.042;2023-01-30T07:01:14;95039.88;;;-0.23;100.00
20013;BME280;10167;42.852;23.042;2023-01-30T07:03:43;95037.59;;;-0.26;100.00
20013;BME280;10167;42.852;23.042;2023-01-30T07:06:15;95033.31;;;-0.19;100.00
20013;BME280;10167;42.852;23.042;2023-01-30T07:08:45;95032.19;;;-0.16;100.00
20013;BME280;10167;42.852;23.042;2023-01-30T07:11:15;95037.75;;;-0.27;100.00
20013;BME280;10167;42.852;23.042;2023-01-30T07:13:46;95042.72;;;-0.10;100.00
20013;BME280;10167;42.852;23.042;2023-01-30T07:16:18;95036.25;;;-0.14;100.00
20013;BME280;10167;42.852;23.042;2023-01-30T07:18:47;95035.53;;;0.00;100.00
20013;BME280;10167;42.852;23.042;2023-01-30T07:21:16;95038.66;;;-0.04;100.00
20013;BME280;10167;42.852;23.042;2023-01-30T07:23:45;95040.56;;;0.02;100.00
20013;BME280;10167;42.852;23.042;2023-01-30T07:26:15;95050.38;;;-0.08;100.00
20013;BME280;10167;42.852;23.042;2023-01-30T07:28:46;95047.13;;;-0.02;100.00
20013;BME280;10167;42.852;23.042;2023-01-30T07:31:15;95049.06;;;-0.04;100.00
20013;BME280;10167;42.852;23.042;2023-01-30T07:33:44;95048.59;;;-0.08;100.00
20013;BME280;10167;42.852;23.042;2023-01-30T07:36:13;95061.09;;;-0.11;100.00
20013;BME280;10167;42.852;23.042;2023-01-30T07:38:43;95057.22;;;-0.07;100.00
20013;BME280;10167;42.852;23.042;2023-01-30T07:41:12;95054.31;;;-0.12;100.00
20013;BME280;10167;42.852;23.042;2023-01-30T07:43:41;95051.03;;;-0.06;100.00
20013;BME280;10167;42.852;23.042;2023-01-30T07:46:11;95050.53;;;-0.10;100.00
20013;BME280;10167;42.852;23.042;2023-01-30T07:48:43;95043.19;;;0.02;100.00
20013;BME280;10167;42.852;23.042;2023-01-30T07:51:15;95046.38;;;0.12;100.00
20013;BME280;10167;42.852;23.042;2023-01-30T07:53:48;95046.44;;;0.04;100.00
20013;BME280;10167;42.852;23.042;2023-01-30T07:56:18;95036.66;;;0.06;100.00
20013;BME280;10167;42.852;23.042;2023-01-30T07:58:50;95039.16;;;-0.01;100.00
20013;BME280;10167;42.852;23.042;2023-01-30T08:01:22;95039.59;;;0.03;100.00
20013;BME280;10167;42.852;23.042;2023-01-30T08:03:51;95042.09;;;-0.12;100.00
20013;BME280;10167;42.852;23.042;2023-01-30T08:06:20;95037.03;;;-0.05;100.00
20013;BME280;10167;42.852;23.042;2023-01-30T08:08:49;95025.59;;;0.04;100.00
20013;BME280;10167;42.852;23.042;2023-01-30T08:11:18;95028.84;;;0.06;100.00
20013;BME280;10167;42.852;23.042;2023-01-30T08:13:47;95026.03;;;0.16;100.00
20013;BME280;10167;42.852;23.042;2023-01-30T08:16:17;95027.50;;;0.18;100.00
20013;BME280;10167;42.852;23.042;2023-01-30T08:18:47;95023.44;;;0.16;100.00
20013;BME280;10167;42.852;23.042;2023-01-30T08:21:16;95027.66;;;0.17;100.00
20013;BME280;10167;42.852;23.042;2023-01-30T08:23:45;95021.50;;;0.18;100.00
20013;BME280;10167;42.852;23.042;2023-01-30T08:26:15;95016.28;;;0.18;100.00
20013;BME280;10167;42.852;23.042;2023-01-30T08:28:44;95014.31;;;0.20;100.00
20013;BME280;10167;42.852;23.042;2023-01-30T08:31:14;95017.59;;;0.14;100.00
20013;BME280;10167;42.852;23.042;2023-01-30T08:33:44;95007.50;;;0.19;100.00
20013;BME280;10167;42.852;23.042;2023-01-30T08:36:14;95007.97;;;0.22;100.00
20013;BME280;10167;42.852;23.042;2023-01-30T08:38:45;95008.31;;;0.19;100.00
20013;BME280;10167;42.852;23.042;2023-01-30T08:41:15;95001.31;;;0.20;100.00
20013;BME280;10167;42.852;23.042;2023-01-30T08:43:44;94997.28;;;0.09;100.00
20013;BME280;10167;42.852;23.042;2023-01-30T08:46:13;95008.03;;;0.06;100.00
20013;BME280;10167;42.852;23.042;2023-01-30T08:48:43;95001.38;;;0.04;100.00
20013;BME280;10167;42.852;23.042;2023-01-30T08:51:18;94996.00;;;0.05;100.00
20013;BME280;10167;42.852;23.042;2023-01-30T08:53:47;95002.00;;;0.06;100.00
20013;BME280;10167;42.852;23.042;2023-01-30T08:56:16;95004.97;;;-0.06;100.00
20013;BME280;10167;42.852;23.042;2023-01-30T08:58:45;95005.75;;;0.03;100.00
20013;BME280;10167;42.852;23.042;2023-01-30T09:01:15;95002.22;;;-0.04;100.00
20013;BME280;10167;42.852;23.042;2023-01-30T09:03:46;95010.69;;;-0.10;100.00
20013;BME280;10167;42.852;23.042;2023-01-30T09:06:16;95003.53;;;-0.08;100.00
20013;BME280;10167;42.852;23.042;2023-01-30T09:08:46;94993.97;;;-0.16;100.00
20013;BME280;10167;42.852;23.042;2023-01-30T09:11:16;95001.84;;;0.07;100.00
20013;BME280;10167;42.852;23.042;2023-01-30T09:13:45;95014.66;;;0.17;100.00
20013;BME280;10167;42.852;23.042;2023-01-30T09:16:16;95006.53;;;0.12;100.00
20013;BME280;10167;42.852;23.042;2023-01-30T09:18:45;95001.31;;;0.20;100.00
20013;BME280;10167;42.852;23.042;2023-01-30T09:21:15;94995.28;;;0.19;100.00
20013;BME280;10167;42.852;23.042;2023-01-30T09:23:46;94998.38;;;0.15;100.00
20013;BME280;10167;42.852;23.042;2023-01-30T09:26:15;94998.81;;;0.26;100.00
20013;BME280;10167;42.852;23.042;2023-01-30T09:28:44;94996.59;;;0.15;100.00
20013;BME280;10167;42.852;23.042;2023-01-30T09:31:13;95002.50;;;0.09;100.00
20013;BME280;10167;42.852;23.042;2023-01-30T09:33:43;94996.63;;;0.07;100.00
20013;BME280;10167;42.852;23.042;2023-01-30T09:36:12;94995.28;;;0.19;100.00
20013;BME280;10167;42.852;23.042;2023-01-30T09:38:41;94998.69;;;0.20;100.00
20013;BME280;10167;42.852;23.042;2023-01-30T09:41:31;94993.50;;;0.20;100.00
20013;BME280;10167;42.852;23.042;2023-01-30T09:44:19;94994.13;;;0.22;100.00
20013;BME280;10167;42.852;23.042;2023-01-30T09:47:02;94991.34;;;0.23;100.00
20013;BME280;10167;42.852;23.042;2023-01-30T09:49:42;94989.25;;;0.19;100.00
20013;BME280;10167;42.852;23.042;2023-01-30T09:52:20;94987.13;;;0.22;100.00
20013;BME280;10167;42.852;23.042;2023-01-30T09:54:58;94982.84;;;0.29;100.00
20013;BME280;10167;42.852;23.042;2023-01-30T09:57:31;94977.13;;;0.34;100.00
20013;BME280;10167;42.852;23.042;2023-01-30T10:00:04;94970.00;;;0.28;100.00
20013;BME280;10167;42.852;23.042;2023-01-30T10:02:46;94969.13;;;0.35;100.00
20013;BME280;10167;42.852;23.042;2023-01-30T10:05:16;94971.34;;;0.47;100.00
20013;BME280;10167;42.852;23.042;2023-01-30T10:08:04;94967.81;;;0.40;100.00
20013;BME280;10167;42.852;23.042;2023-01-30T10:10:45;94956.28;;;0.34;100.00
20013;BME280;10167;42.852;23.042;2023-01-30T10:13:36;94942.50;;;0.25;100.00
20013;BME280;10167;42.852;23.042;2023-01-30T10:16:14;94944.03;;;0.43;100.00
20013;BME280;10167;42.852;23.042;2023-01-30T10:18:54;94940.44;;;0.44;100.00
20013;BME280;10167;42.852;23.042;2023-01-30T10:21:31;94950.72;;;0.37;100.00
20013;BME280;10167;42.852;23.042;2023-01-30T10:24:17;94933.47;;;0.36;100.00
20013;BME280;10167;42.852;23.042;2023-01-30T10:26:48;94930.88;;;0.36;100.00
20013;BME280;10167;42.852;23.042;2023-01-30T10:29:23;94923.69;;;0.38;100.00
20013;BME280;10167;42.852;23.042;2023-01-30T10:31:57;94914.34;;;0.29;100.00
20013;BME280;10167;42.852;23.042;2023-01-30T10:34:31;94912.19;;;0.32;100.00
20013;BME280;10167;42.852;23.042;2023-01-30T10:37:04;94905.78;;;0.43;100.00
20013;BME280;10167;42.852;23.042;2023-01-30T10:39:44;94904.16;;;0.42;100.00
20013;BME280;10167;42.852;23.042;2023-01-30T10:42:26;94903.50;;;0.40;100.00
20013;BME280;10167;42.852;23.042;2023-01-30T10:45:07;94893.16;;;0.55;100.00
20013;BME280;10167;42.852;23.042;2023-01-30T10:47:50;94884.06;;;0.51;100.00
20013;BME280;10167;42.852;23.042;2023-01-30T10:50:29;94874.69;;;0.42;100.00
20013;BME280;10167;42.852;23.042;2023-01-30T10:53:03;94874.34;;;0.45;100.00
20013;BME280;10167;42.852;23.042;2023-01-30T10:55:39;94867.50;;;0.44;100.00
20013;BME280;10167;42.852;23.042;2023-01-30T10:58:18;94865.03;;;0.27;100.00
20013;BME280;10167;42.852;23.042;2023-01-30T11:00:58;94857.94;;;0.36;100.00
20013;BME280;10167;42.852;23.042;2023-01-30T11:03:34;94852.22;;;0.41;100.00
20013;BME280;10167;42.852;23.042;2023-01-30T11:06:07;94843.69;;;0.32;100.00
20013;BME280;10167;42.852;23.042;2023-01-30T11:08:39;94843.31;;;0.35;100.00
20013;BME280;10167;42.852;23.042;2023-01-30T11:11:26;94836.44;;;0.42;100.00
20013;BME280;10167;42.852;23.042;2023-01-30T11:14:04;94831.44;;;0.55;100.00
20013;BME280;10167;42.852;23.042;2023-01-30T11:16:42;94825.75;;;0.52;100.00
20013;BME280;10167;42.852;23.042;2023-01-30T11:19:13;94814.38;;;0.67;100.00
20013;BME280;10167;42.852;23.042;2023-01-30T11:21:49;94815.28;;;0.75;100.00
20013;BME280;10167;42.852;23.042;2023-01-30T11:24:21;94806.22;;;0.85;100.00
20013;BME280;10167;42.852;23.042;2023-01-30T11:26:51;94812.13;;;0.79;100.00
20013;BME280;10167;42.852;23.042;2023-01-30T11:29:27;94812.31;;;0.92;100.00
20013;BME280;10167;42.852;23.042;2023-01-30T11:32:03;94802.88;;;0.77;100.00
20013;BME280;10167;42.852;23.042;2023-01-30T11:34:35;94799.47;;;0.76;100.00
20013;BME280;10167;42.852;23.042;2023-01-30T11:37:13;94801.34;;;0.82;100.00
20013;BME280;10167;42.852;23.042;2023-01-30T11:39:50;94783.72;;;0.55;100.00
20013;BME280;10167;42.852;23.042;2023-01-30T11:42:24;94776.06;;;0.68;100.00
20013;BME280;10167;42.852;23.042;2023-01-30T11:44:56;94774.91;;;0.70;100.00
20013;BME280;10167;42.852;23.042;2023-01-30T11:47:50;94770.25;;;0.66;100.00
20013;BME280;10167;42.852;23.042;2023-01-30T11:50:37;94767.38;;;0.61;100.00
20013;BME280;10167;42.852;23.042;2023-01-30T11:53:26;94761.69;;;0.57;100.00
20013;BME280;10167;42.852;23.042;2023-01-30T11:56:02;94764.03;;;0.52;100.00
20013;BME280;10167;42.852;23.042;2023-01-30T11:58:38;94754.53;;;0.74;100.00
20013;BME280;10167;42.852;23.042;2023-01-30T12:01:08;94753.09;;;0.86;100.00
20013;BME280;10167;42.852;23.042;2023-01-30T12:03:46;94749.41;;;0.81;100.00
20013;BME280;10167;42.852;23.042;2023-01-30T12:06:23;94739.06;;;0.87;100.00
20013;BME280;10167;42.852;23.042;2023-01-30T12:08:57;94736.75;;;0.78;100.00
20013;BME280;10167;42.852;23.042;2023-01-30T12:11:29;94726.03;;;0.72;100.00
20013;BME280;10167;42.852;23.042;2023-01-30T12:14:13;94726.84;;;0.88;100.00
20013;BME280;10167;42.852;23.042;2023-01-30T12:16:55;94731.44;;;0.71;100.00
20013;BME280;10167;42.852;23.042;2023-01-30T12:19:45;94720.81;;;0.72;100.00
20013;BME280;10167;42.852;23.042;2023-01-30T12:22:25;94709.94;;;0.69;100.00
20013;BME280;10167;42.852;23.042;2023-01-30T12:24:58;94717.75;;;0.84;100.00
20013;BME280;10167;42.852;23.042;2023-01-30T12:27:42;94715.44;;;0.89;100.00
20013;BME280;10167;42.852;23.042;2023-01-30T12:30:22;94707.50;;;0.97;100.00
20013;BME280;10167;42.852;23.042;2023-01-30T12:32:58;94712.91;;;0.95;100.00
20013;BME280;10167;42.852;23.042;2023-01-30T12:35:41;94711.28;;;1.09;100.00
20013;BME280;10167;42.852;23.042;2023-01-30T12:38:24;94704.16;;;1.03;100.00
20013;BME280;10167;42.852;23.042;2023-01-30T12:41:09;94702.47;;;1.10;100.00
20013;BME280;10167;42.852;23.042;2023-01-30T12:43:58;94695.56;;;0.88;100.00
20013;BME280;10167;42.852;23.042;2023-01-30T12:46:47;94694.03;;;0.93;100.00
20013;BME280;10167;42.852;23.042;2023-01-30T12:49:38;94688.09;;;0.99;100.00
20013;BME280;10167;42.852;23.042;2023-01-30T12:52:32;94692.03;;;0.95;100.00
20013;BME280;10167;42.852;23.042;2023-01-30T12:55:19;94685.44;;;0.63;100.00
20013;BME280;10167;42.852;23.042;2023-01-30T12:57:55;94685.22;;;0.80;100.00
20013;BME280;10167;42.852;23.042;2023-01-30T13:00:35;94680.22;;;0.63;100.00
20013;BME280;10167;42.852;23.042;2023-01-30T13:03:20;94672.66;;;0.68;100.00
20013;BME280;10167;42.852;23.042;2023-01-30T13:05:53;94667.66;;;0.67;100.00
20013;BME280;10167;42.852;23.042;2023-01-30T13:08:39;94651.72;;;0.77;100.00
20013;BME280;10167;42.852;23.042;2023-01-30T13:11:24;94661.72;;;0.58;100.00
20013;BME280;10167;42.852;23.042;2023-01-30T13:14:00;94653.47;;;0.55;100.00
20013;BME280;10167;42.852;23.042;2023-01-30T13:16:38;94649.59;;;0.65;100.00
20013;BME280;10167;42.852;23.042;2023-01-30T13:19:17;94648.50;;;0.60;100.00